Latest Coastal Weather Observations for Kowanyama

IDQ60701

Issued at 8:52 am EST Sunday 28 December 2014 (issued every 10 minutes, with the page automatically refreshed every 10 minutes)

About coastal observations | Map of coastal stations | Coastal observations for QLD | Marine services | Other Formats
Station Details ID: 029038 Name: KOWANYAMA AIRPORT Lat: -15.48 Lon: 141.75 Height: 9.6 m
Data from the previous 72 hours. | See also: Recent months at Kowanyama
Date/Time
EST
Temp

°C
Wind Pressure Rain
since 9am
mm
Weather Cloud Vis
km
Sea
Height
m
Swell
Dir
 
Speed
knots
Gust
knots
hPa Trend Height
m
Period
s
Dir
28/08:30am 29.0 NE 6 8 1009.2 - 0.2 - Cloudy - - - - -
28/08:00am 27.8 NE 4 6 1009.3 - 0.2 - Cloudy - - - - -
28/07:30am 26.9 E 3 4 1009.1 - 0.2 - Cloudy - - - - -
28/07:00am 26.0 ENE 3 4 1008.8 - 0.2 - Partly cloudy - - - - -
28/06:30am 25.6 NNE 4 5 1008.7 - 0.2 - Partly cloudy - - - - -
28/06:00am 25.5 ENE 4 6 1008.6 - 0.2 - Cloudy - - - - -
28/05:30am 25.3 NE 4 6 1008.4 - 0.2 - Partly cloudy - - - - -
28/05:00am 25.2 ENE 6 9 1007.9 - 0.2 - Partly cloudy - - - - -
28/04:30am 25.2 ENE 6 8 1007.7 - 0.2 - Cloudy - - - - -
28/04:00am 25.2 ENE 8 11 1007.8 - 0.0 - Partly cloudy - - - - -
28/03:30am 25.5 ENE 6 8 1008.0 - 0.0 - Partly cloudy - - - - -
28/03:00am 26.0 ENE 8 12 1008.0 - 0.0 - Cloudy - - - - -
28/02:00am 28.1 E 4 7 1008.1 - 0.0 - Partly cloudy - - - - -
28/01:30am 28.6 E 4 5 1008.3 - 0.0 - Partly cloudy - - - - -
28/01:00am 28.7 ENE 5 9 1008.3 - 0.0 - Partly cloudy - - - - -
28/12:30am 28.3 NNW 3 10 1008.1 - 0.0 - Partly cloudy - - - - -
28/12:00am 28.3 SSW 2 4 1008.0 - 0.0 - Cloudy - - - - -
 
Date/Time
EST
Temp

°C
Wind Pressure Rain
since 9am
mm
Weather Cloud Vis
km
Sea
Height
m
Swell
Dir
 
Speed
knots
Gust
knots
hPa Trend Height
m
Period
s
Dir
27/11:30pm 28.0 S 3 5 1007.9 - 0.0 - - - - - - -
27/11:00pm 28.4 WSW 4 6 1008.0 - 0.0 - - - - - - -
27/10:30pm 28.5 SW 5 6 1007.9 - 0.0 - - - - - - -
27/10:00pm 28.7 SSW 4 6 1007.7 - 0.0 - - - - - - -
27/09:30pm 28.9 SW 4 6 1007.5 - 0.0 - - - - - - -
27/09:00pm 29.1 SW 4 5 1007.4 - 0.0 - - - - - - -
27/08:30pm 29.3 SW 4 6 1007.1 - 0.0 - - - - - - -
27/08:00pm 29.6 W 4 4 1006.9 - 0.0 - - - - - - -
27/07:30pm 30.1 W 4 6 1006.7 - 0.0 - - - - - - -
27/07:00pm 30.5 W 6 8 1006.5 - 0.0 - Partly cloudy - - - - -
27/06:30pm 31.5 W 8 11 1006.2 - 0.0 - - - - - - -
27/06:00pm 32.8 WNW 9 12 1005.6 - 0.0 - Cloudy - - - - -
27/05:30pm 32.4 WNW 9 11 1005.8 - 0.0 - Partly cloudy - - - - -
27/05:00pm 32.8 NW 8 11 1005.7 - 0.0 - Partly cloudy - - - - -
27/04:30pm 32.3 WNW 8 11 1005.7 - 0.0 - Cloudy - - - - -
27/04:00pm 32.7 W 9 12 1005.7 - 0.0 - Partly cloudy - - - - -
27/03:30pm 32.9 NNW 7 11 1005.9 - 0.0 - Partly cloudy - - - - -
27/03:00pm 33.8 NE 4 6 1006.0 - 0.0 - Cloudy - - - - -
27/02:30pm 33.9 NNE 5 8 1006.5 - 0.0 - Partly cloudy - - - - -
27/02:00pm 34.3 ENE 7 12 1006.7 - 0.0 - Partly cloudy - - - - -
27/01:30pm 34.3 ENE 5 9 1007.1 - 0.0 - Partly cloudy - - - - -
27/01:00pm 33.7 NE 5 9 1007.4 - 0.0 - Partly cloudy - - - - -
27/12:30pm 33.0 NNE 8 11 1007.9 - 0.0 - Partly cloudy - - - - -
27/12:00pm 32.4 NNE 7 10 1008.2 - 0.0 - Cloudy - - - - -
27/11:30am 32.4 NNE 7 11 1008.7 - 0.0 - Partly cloudy - - - - -
27/11:00am 31.9 NE 6 9 1008.8 - 0.0 - Partly cloudy - - - - -
27/10:30am 31.4 NE 7 13 1008.9 - 0.0 - - - - - - -
27/10:00am 30.3 NNE 4 6 1009.1 - 0.0 - Partly cloudy - - - - -
27/09:30am 28.9 NE 5 8 1009.2 - 0.0 - Partly cloudy - - - - -
27/09:00am 28.1 NE 4 6 1009.1 - 2.6 - Cloudy - - - - -
27/08:30am 27.6 ENE 5 7 1008.9 - 2.6 - Partly cloudy - - - - -
27/08:00am 26.2 NE 3 5 1008.8 - 2.6 - Cloudy - - - - -
27/07:30am 25.5 NE 2 4 1008.7 - 2.6 - Cloudy - - - - -
27/07:00am 24.9 SE 3 3 1008.7 - 2.6 - Partly cloudy - - - - -
27/06:30am 24.7 SSW 2 3 1008.4 - 2.6 - Partly cloudy - - - - -
27/06:00am 24.6 W 2 3 1008.1 - 2.6 - Cloudy - - - - -
27/05:30am 24.3 S 3 4 1007.9 - 2.6 - Partly cloudy - - - - -
27/05:00am 24.1 ENE 3 5 1007.6 - 2.4 - Partly cloudy - - - - -
27/04:30am 24.1 NNE 5 7 1007.5 - 2.4 - Partly cloudy - - - - -
27/04:00am 24.6 NE 5 9 1007.6 - 1.8 - Partly cloudy - - - - -
27/03:30am 25.3 NE 5 8 1007.4 - 0.4 - Cloudy - - - - -
27/03:00am 25.5 ENE 7 10 1007.6 - 0.2 - Cloudy - - - - -
27/02:30am 26.7 ENE 8 14 1007.4 - 0.0 - Partly cloudy - - - - -
27/02:00am 28.4 ENE 2 4 1007.0 - 0.0 - Partly cloudy - - - - -
27/01:30am 28.2 ENE 4 6 1007.2 - 0.0 - Cloudy - - - - -
27/01:00am 28.0 ENE 3 6 1007.2 - 0.0 - Partly cloudy - - - - -
27/12:30am 28.0 ENE 5 6 1007.2 - 0.0 - Partly cloudy - - - - -
27/12:00am 27.7 ENE 5 8 1007.4 - 0.0 - Cloudy - - - - -
 
Date/Time
EST
Temp

°C
Wind Pressure Rain
since 9am
mm
Weather Cloud Vis
km
Sea
Height
m
Swell
Dir
 
Speed
knots
Gust
knots
hPa Trend Height
m
Period
s
Dir
26/11:30pm 27.7 ENE 4 5 1007.3 - 0.0 - Cloudy - - - - -
26/11:00pm 28.2 W 3 4 1007.0 - 0.0 - Partly cloudy - - - - -
26/10:30pm 28.1 W 4 5 1006.6 - 0.0 - - - - - - -
26/10:00pm 28.1 W 4 5 1006.2 - 0.0 - - - - - - -
26/09:30pm 28.4 W 4 6 1005.9 - 0.0 - - - - - - -
26/09:00pm 28.6 WSW 4 7 1005.6 - 0.0 - - - - - - -
26/08:30pm 28.8 W 5 7 1005.2 - 0.0 - - - - - - -
26/08:00pm 29.1 W 6 8 1005.1 - 0.0 - - - - - - -
26/07:30pm 29.6 WNW 6 8 1005.0 - 0.0 - - - - - - -
26/07:00pm 29.9 W 7 9 1004.9 - 0.0 - - - - - - -
26/06:30pm 30.5 WNW 9 11 1004.7 - 0.0 - - - - - - -
26/06:00pm 31.7 WNW 9 11 1004.5 - 0.0 - - - - - - -
26/05:30pm 32.0 WNW 10 12 1004.1 - 0.0 - - - - - - -
26/05:00pm 33.2 WNW 11 13 1004.1 - 0.0 - - - - - - -
26/04:30pm 33.2 WNW 11 13 1004.1 - 0.0 - - - - - - -
26/04:00pm 33.9 WNW 9 12 1004.0 - 0.0 - Partly cloudy - - - - -
26/03:30pm 33.5 WNW 9 12 1004.4 - 0.0 - Partly cloudy - - - - -
26/03:00pm 34.9 N 5 8 1004.7 - 0.0 - - - - - - -
26/02:30pm 34.6 N 5 7 1005.1 - 0.0 - Partly cloudy - - - - -
26/02:00pm 34.1 N 5 8 1005.3 - 0.0 - Partly cloudy - - - - -
26/01:30pm 34.3 NNE 6 11 1005.9 - 0.0 - - - - - - -
26/01:00pm 33.2 NNE 6 9 1006.2 - 0.0 - Partly cloudy - - - - -
26/12:30pm 32.8 NE 5 8 1006.6 - 0.0 - Partly cloudy - - - - -
26/12:00pm 32.8 NNE 7 12 1006.9 - 0.0 - - - - - - -
26/11:30am 32.7 NNE 7 12 1007.2 - 0.0 - - - - - - -
26/11:00am 31.2 NNE 7 11 1007.6 - 0.0 - - - - - - -
26/10:30am 30.4 NE 8 13 1008.0 - 0.0 - - - - - - -
26/10:00am 30.3 NNE 7 11 1008.3 - 0.0 - - - - - - -
26/09:30am 29.8 NNE 6 10 1008.6 - 0.0 - - - - - - -
26/09:00am 28.4 NE 7 11 1008.7 - 0.0 - - - - - - -
26/08:30am 28.4 NE 7 11 1008.4 - 0.0 - - - - - - -
26/08:00am 27.9 NE 6 10 1008.3 - 0.0 - Partly cloudy - - - - -
26/07:30am 27.1 NE 4 7 1008.3 - 0.0 - Partly cloudy - - - - -
26/07:00am 26.4 NE 5 6 1008.2 - 0.0 - Cloudy - - - - -
26/06:30am 25.7 NNE 4 7 1007.7 - 0.0 - Partly cloudy - - - - -
26/06:00am 25.1 NNE 6 8 1007.5 - 0.0 - Cloudy - - - - -
26/05:30am 24.9 NE 7 10 1007.2 - 0.0 - Partly cloudy - - - - -
26/05:00am 24.9 NE 7 11 1006.9 - 0.0 - Partly cloudy - - - - -
26/04:30am 25.0 NE 7 10 1006.8 - 0.0 - Partly cloudy - - - - -
26/04:00am 25.1 NE 9 14 1006.3 - 0.0 - - - - - - -
26/03:30am 25.3 NE 7 13 1006.0 - 0.0 - Partly cloudy - - - - -
26/03:00am 26.9 ENE 7 13 1005.9 - 0.0 - Cloudy - - - - -
26/02:30am 27.1 ENE 4 6 1005.8 - 0.0 - Partly cloudy - - - - -
26/02:00am 26.8 ENE 3 4 1005.5 - 0.0 - Partly cloudy - - - - -
26/01:30am 26.9 NE 4 5 1005.8 - 0.0 - Partly cloudy - - - - -
26/01:00am 26.9 NE 5 6 1006.1 - 0.0 - - - - - - -
26/12:30am 27.0 NE 5 6 1006.4 - 0.0 - - - - - - -
26/12:00am 27.0 NE 5 7 1006.5 - 0.0 - - - - - - -
 
Date/Time
EST
Temp

°C
Wind Pressure Rain
since 9am
mm
Weather Cloud Vis
km
Sea
Height
m
Swell
Dir
 
Speed
knots
Gust
knots
hPa Trend Height
m
Period
s
Dir
25/11:30pm 27.8 NW 3 4 1006.2 - 0.0 - - - - - - -
25/11:00pm 27.9 WSW 3 5 1006.0 - 0.0 - - - - - - -
25/10:30pm 28.0 W 2 3 1006.1 - 0.0 - - - - - - -
25/10:00pm 28.2 W 3 4 1006.0 - 0.0 - - - - - - -
25/09:30pm 28.4 W 4 5 1005.8 - 0.0 - - - - - - -
25/09:00pm 28.6 WSW 4 6 1005.7 - 0.0 - - - - - - -
25/08:30pm 28.8 WSW 5 6 1005.5 - 0.0 - - - - - - -
25/08:00pm 29.0 W 7 9 1005.3 - 0.0 - - - - - - -
25/07:30pm 29.7 WNW 10 12 1005.3 - 0.0 - - - - - - -
25/07:00pm 30.4 WNW 10 14 1005.1 - 0.0 - - - - - - -
25/06:30pm 30.8 WNW 10 13 1005.0 - 0.0 - - - - - - -
25/06:00pm 31.5 WNW 12 15 1004.8 - 0.0 - - - - - - -
25/05:30pm 31.8 WNW 11 15 1004.4 - 0.0 - - - - - - -
25/05:00pm 31.8 W 11 16 1004.3 - 0.0 - - - - - - -
25/04:30pm 33.0 WNW 9 12 1004.2 - 0.0 - - - - - - -
25/04:00pm 33.2 WNW 11 14 1004.1 - 0.0 - - - - - - -
25/03:30pm 34.2 WNW 9 12 1004.5 - 0.0 - Partly cloudy - - - - -
25/03:00pm 33.2 W 9 11 1005.0 - 0.0 - Cloudy - - - - -
25/02:30pm 34.5 SSW 3 6 1005.4 - 0.0 - Partly cloudy - - - - -
25/02:00pm 34.7 NNW 3 8 1005.9 - 0.0 - Partly cloudy - - - - -
25/01:30pm 33.9 WNW 5 8 1006.3 - 0.0 - Partly cloudy - - - - -
25/01:00pm 33.6 NNE 3 6 1006.8 - 0.0 - - - - - - -
25/12:30pm 33.2 NNW 4 6 1007.3 - 0.0 - - - - - - -
25/12:00pm 33.0 N 5 8 1007.8 - 0.0 - - - - - - -
25/11:30am 32.4 N 6 9 1008.3 - 0.0 - - - - - - -
25/11:00am 31.8 NNE 5 8 1008.9 - 0.0 - - - - - - -
25/10:30am 31.2 NE 7 11 1009.2 - 0.0 - - - - - - -
25/10:00am 30.5 NNE 6 8 1009.2 - 0.0 - - - - - - -
25/09:30am 29.7 NNE 6 9 1009.4 - 0.0 - - - - - - -
25/09:00am 29.4 NNE 8 11 1009.5 - 0.0 - - - - - - -

Other Formats:

Comma delimited format used in spreadsheet applications
http://www.bom.gov.au/fwo/IDQ60701/IDQ60701.94268.axf

JavaScript Object Notation format (JSON) in row-major order
http://www.bom.gov.au/fwo/IDQ60701/IDQ60701.94268.json